• Join FlightAware (Why Join?)
  • Login
  • US Flag 
09:32PM EDT


 

Airport Tracker/Info


-or-


 

Live Flight TrackerFlight Track Log ✈ FSR411 ✈ 16-Mar-2014 ✈ KMSN - KCMI

Flight Track Log - Related Links

Times and Time Zones

All times are in EDT time to prevent confusion due to time zone crossing. See the FSR411 flight status page for this flight to view local times or setup timezone preferences in your user account.

Time Position Orientation Groundspeed Altitude Reporting Facility
EDT Latitude Longitude Course Direction KTS MPH feet Rate Location/Type
09:29PM 43.2100 -89.2961 76° East 236 272 8,800  Level Chicago Center
09:30PM 43.1642 -89.2214 130° Southeast 252 290 12,800 3,780 Climbing Chicago Center
09:31PM 43.1031 -89.1283 132° Southeast 310 357 16,700 2,940 Climbing Chicago Center
09:33PM 43.0292 -89.0136 131° Southeast 382 440 18,900 1,080 Climbing Chicago Center
09:34PM 42.6172 -89.1235 164° South  Level FlightAware Approximate
09:34PM 42.9047 -88.9131 149° Southeast 438 504 19,000  Level Chicago Center
09:35PM 42.7831 -88.8864 171° South 444 511 19,000  Level Chicago Center
09:36PM 42.6614 -88.8578 170° South 445 512 19,000  Level Chicago Center
09:37PM 42.5389 -88.8292 170° South 447 514 19,000  Level Chicago Center
09:38PM 42.4169 -88.8011 170° South 446 513 19,000  Level Chicago Center
09:39PM 42.2861 -88.7742 171° South 447 514 19,000  Level Chicago Center
09:40PM 42.1653 -88.7467 170° South 440 506 19,000  Level Chicago Center
09:41PM 42.0217 -88.7125 170° South 438 504 19,000  Level Chicago Center
09:42PM 41.9031 -88.6833 170° South 436 502 19,000  Level Chicago Center
09:43PM 41.7831 -88.6561 170° South 438 504 19,000  Level Chicago Center
09:44PM 41.6639 -88.6311 171° South 437 503 19,000  Level Chicago Center
09:45PM 41.5431 -88.6050 171° South 441 507 19,000  Level Chicago Center
09:46PM 41.4242 -88.5772 170° South 440 506 19,000  Level Chicago Center
09:47PM 41.2806 -88.5478 171° South 441 507 19,000  Level Chicago Center
09:48PM 41.1611 -88.5214 171° South 439 505 19,000  Level Chicago Center
09:49PM 41.0394 -88.4947 171° South 444 511 19,000 -60 Level Chicago Center
09:50PM 40.9169 -88.4658 170° South 450 518 18,900 -840 Descending Chicago Center
09:51PM 40.8006 -88.4411 171° South 427 491 17,400 -2,040 Descending Chicago Center
09:52PM 40.6875 -88.4153 170° South 417 480 14,800 -2,820 Descending Chicago Center
09:53PM 40.5594 -88.3886 171° South 394 453 11,700 -2,520 Descending Chicago Center
09:54PM 40.4669 -88.3683 171° South 348 400 9,700 -1,860 Descending Chicago Center
09:55PM 40.3867 -88.3494 170° South 304 350 7,900 -1,800 Descending Chicago Center
09:56PM 40.3117 -88.3353 172° South 282 325 6,100 -1,620 Descending Chicago Center
09:57PM 40.2389 -88.3381 182° South 265 305 4,600 -1,260 Descending Chicago Center
09:58PM 40.1600 -88.3494 186° South 258 297 3,500 -1,080 Descending Chicago Center
10:00PM 40.0651 -88.2773 166° South  Level FlightAware Approximate
10:07PM 40.0333 -88.2667 166° South  Level FlightAware Approximate
10:08PM 40.0388 -88.2778 166° South  Level Estimated
10:09PM 40.0388 -88.2778 166° South  Level Estimated
10:10PM 40.0388 -88.2778 166° South  Level Estimated
10:11PM 40.0388 -88.2778 166° South  Level Estimated